sensor_id;sensor_type;location;lat;lon;timestamp;temperature;humidity
2523;DHT22;1272;53.332;9.860;2024-03-17T00:00:59;2.70;1.00
2523;DHT22;1272;53.332;9.860;2024-03-17T00:03:25;2.70;1.00
2523;DHT22;1272;53.332;9.860;2024-03-17T00:05:58;2.70;1.00
2523;DHT22;1272;53.332;9.860;2024-03-17T00:08:24;2.60;1.00
2523;DHT22;1272;53.332;9.860;2024-03-17T00:10:54;2.60;1.00
2523;DHT22;1272;53.332;9.860;2024-03-17T00:13:23;2.50;1.00
2523;DHT22;1272;53.332;9.860;2024-03-17T00:15:50;2.50;1.00
2523;DHT22;1272;53.332;9.860;2024-03-17T00:18:16;2.50;1.00
2523;DHT22;1272;53.332;9.860;2024-03-17T00:20:42;2.40;1.00
2523;DHT22;1272;53.332;9.860;2024-03-17T00:23:09;2.40;1.00
2523;DHT22;1272;53.332;9.860;2024-03-17T00:25:38;2.40;1.00
2523;DHT22;1272;53.332;9.860;2024-03-17T00:28:04;2.40;1.00
2523;DHT22;1272;53.332;9.860;2024-03-17T00:30:30;2.30;1.00
2523;DHT22;1272;53.332;9.860;2024-03-17T00:32:57;2.30;1.00
2523;DHT22;1272;53.332;9.860;2024-03-17T00:35:23;2.30;1.00
2523;DHT22;1272;53.332;9.860;2024-03-17T00:37:50;2.30;1.00
2523;DHT22;1272;53.332;9.860;2024-03-17T00:40:17;2.30;1.00
2523;DHT22;1272;53.332;9.860;2024-03-17T00:42:43;2.30;1.00
2523;DHT22;1272;53.332;9.860;2024-03-17T00:45:12;2.20;1.00
2523;DHT22;1272;53.332;9.860;2024-03-17T00:47:38;2.20;1.00
2523;DHT22;1272;53.332;9.860;2024-03-17T00:50:05;2.20;1.00
2523;DHT22;1272;53.332;9.860;2024-03-17T00:52:32;2.10;1.00
2523;DHT22;1272;53.332;9.860;2024-03-17T00:54:58;2.10;1.00
2523;DHT22;1272;53.332;9.860;2024-03-17T00:57:24;2.10;1.00
2523;DHT22;1272;53.332;9.860;2024-03-17T00:59:50;2.20;1.00
2523;DHT22;1272;53.332;9.860;2024-03-17T01:02:18;2.10;1.00
2523;DHT22;1272;53.332;9.860;2024-03-17T01:04:44;2.10;1.00
2523;DHT22;1272;53.332;9.860;2024-03-17T01:07:10;2.10;1.00
2523;DHT22;1272;53.332;9.860;2024-03-17T01:09:36;2.00;1.00
2523;DHT22;1272;53.332;9.860;2024-03-17T01:12:02;2.00;7.40
2523;DHT22;1272;53.332;9.860;2024-03-17T01:14:29;2.00;1.00
2523;DHT22;1272;53.332;9.860;2024-03-17T01:16:55;1.90;1.00
2523;DHT22;1272;53.332;9.860;2024-03-17T01:19:22;1.90;1.00
2523;DHT22;1272;53.332;9.860;2024-03-17T01:21:47;1.90;4.60
2523;DHT22;1272;53.332;9.860;2024-03-17T01:24:13;1.90;2.50
2523;DHT22;1272;53.332;9.860;2024-03-17T01:26:39;1.90;1.00
2523;DHT22;1272;53.332;9.860;2024-03-17T01:29:05;1.80;34.40
2523;DHT22;1272;53.332;9.860;2024-03-17T01:31:30;1.80;19.50
2523;DHT22;1272;53.332;9.860;2024-03-17T01:33:56;1.80;1.00
2523;DHT22;1272;53.332;9.860;2024-03-17T01:36:22;1.60;30.10
2523;DHT22;1272;53.332;9.860;2024-03-17T01:38:49;1.60;99.90
2523;DHT22;1272;53.332;9.860;2024-03-17T01:41:15;1.60;99.90
2523;DHT22;1272;53.332;9.860;2024-03-17T01:43:41;1.60;99.90
2523;DHT22;1272;53.332;9.860;2024-03-17T01:46:12;1.60;99.90
2523;DHT22;1272;53.332;9.860;2024-03-17T01:48:39;1.60;99.90
2523;DHT22;1272;53.332;9.860;2024-03-17T01:51:05;1.60;99.90
2523;DHT22;1272;53.332;9.860;2024-03-17T01:53:33;1.60;99.90
2523;DHT22;1272;53.332;9.860;2024-03-17T01:55:59;1.60;99.90
2523;DHT22;1272;53.332;9.860;2024-03-17T01:58:25;1.50;99.90
2523;DHT22;1272;53.332;9.860;2024-03-17T02:00:52;1.50;99.90
2523;DHT22;1272;53.332;9.860;2024-03-17T02:03:18;1.50;99.90
2523;DHT22;1272;53.332;9.860;2024-03-17T02:05:45;1.50;99.90
2523;DHT22;1272;53.332;9.860;2024-03-17T02:08:11;1.50;99.90
2523;DHT22;1272;53.332;9.860;2024-03-17T02:10:39;1.50;99.90
2523;DHT22;1272;53.332;9.860;2024-03-17T02:13:05;1.50;99.90
2523;DHT22;1272;53.332;9.860;2024-03-17T02:15:32;1.50;99.90
2523;DHT22;1272;53.332;9.860;2024-03-17T02:17:58;1.40;99.90
2523;DHT22;1272;53.332;9.860;2024-03-17T02:20:24;1.40;99.90
2523;DHT22;1272;53.332;9.860;2024-03-17T02:23:08;1.40;99.90
2523;DHT22;1272;53.332;9.860;2024-03-17T02:25:34;1.30;99.90
2523;DHT22;1272;53.332;9.860;2024-03-17T02:28:01;1.30;99.90
2523;DHT22;1272;53.332;9.860;2024-03-17T02:30:27;1.30;99.90
2523;DHT22;1272;53.332;9.860;2024-03-17T02:32:56;1.20;99.90
2523;DHT22;1272;53.332;9.860;2024-03-17T02:35:23;1.30;99.90
2523;DHT22;1272;53.332;9.860;2024-03-17T02:37:48;1.20;99.90
2523;DHT22;1272;53.332;9.860;2024-03-17T02:40:14;1.20;99.90
2523;DHT22;1272;53.332;9.860;2024-03-17T02:42:41;1.20;99.90
2523;DHT22;1272;53.332;9.860;2024-03-17T02:45:08;1.20;99.90
2523;DHT22;1272;53.332;9.860;2024-03-17T02:47:34;1.20;99.90
2523;DHT22;1272;53.332;9.860;2024-03-17T02:50:00;1.10;99.90
2523;DHT22;1272;53.332;9.860;2024-03-17T02:52:27;1.10;99.90
2523;DHT22;1272;53.332;9.860;2024-03-17T02:54:52;1.10;99.90
2523;DHT22;1272;53.332;9.860;2024-03-17T02:57:23;1.10;99.90
2523;DHT22;1272;53.332;9.860;2024-03-17T02:59:55;1.10;99.90
2523;DHT22;1272;53.332;9.860;2024-03-17T03:02:22;1.10;99.90
2523;DHT22;1272;53.332;9.860;2024-03-17T03:04:47;1.00;99.90
2523;DHT22;1272;53.332;9.860;2024-03-17T03:07:13;1.00;1.00
2523;DHT22;1272;53.332;9.860;2024-03-17T03:09:39;1.00;1.00
2523;DHT22;1272;53.332;9.860;2024-03-17T03:12:05;1.00;99.90
2523;DHT22;1272;53.332;9.860;2024-03-17T03:14:32;1.00;1.00
2523;DHT22;1272;53.332;9.860;2024-03-17T03:16:58;1.00;1.00
2523;DHT22;1272;53.332;9.860;2024-03-17T03:19:25;0.90;1.00
2523;DHT22;1272;53.332;9.860;2024-03-17T03:21:51;0.90;1.00
2523;DHT22;1272;53.332;9.860;2024-03-17T03:24:17;0.90;1.00
2523;DHT22;1272;53.332;9.860;2024-03-17T03:26:43;0.90;1.00
2523;DHT22;1272;53.332;9.860;2024-03-17T03:29:09;0.90;1.00
2523;DHT22;1272;53.332;9.860;2024-03-17T03:31:36;0.80;1.00
2523;DHT22;1272;53.332;9.860;2024-03-17T03:34:02;0.80;1.00
2523;DHT22;1272;53.332;9.860;2024-03-17T03:36:28;0.80;1.00
2523;DHT22;1272;53.332;9.860;2024-03-17T03:38:55;0.80;1.00
2523;DHT22;1272;53.332;9.860;2024-03-17T03:41:23;0.80;1.00
2523;DHT22;1272;53.332;9.860;2024-03-17T03:43:49;0.80;1.00
2523;DHT22;1272;53.332;9.860;2024-03-17T03:46:15;0.80;1.00
2523;DHT22;1272;53.332;9.860;2024-03-17T03:48:40;0.70;1.00
2523;DHT22;1272;53.332;9.860;2024-03-17T03:51:10;0.70;1.00
2523;DHT22;1272;53.332;9.860;2024-03-17T03:53:36;0.70;1.00
2523;DHT22;1272;53.332;9.860;2024-03-17T03:56:04;0.70;1.00
2523;DHT22;1272;53.332;9.860;2024-03-17T03:58:38;0.70;1.00
2523;DHT22;1272;53.332;9.860;2024-03-17T04:01:08;0.60;1.00
2523;DHT22;1272;53.332;9.860;2024-03-17T04:03:35;0.60;1.00
2523;DHT22;1272;53.332;9.860;2024-03-17T04:06:08;0.60;1.00
2523;DHT22;1272;53.332;9.860;2024-03-17T04:08:35;0.60;1.00
2523;DHT22;1272;53.332;9.860;2024-03-17T04:11:02;0.70;1.00
2523;DHT22;1272;53.332;9.860;2024-03-17T04:13:28;0.60;1.00
2523;DHT22;1272;53.332;9.860;2024-03-17T04:15:59;0.60;1.00
2523;DHT22;1272;53.332;9.860;2024-03-17T04:18:25;0.60;1.00
2523;DHT22;1272;53.332;9.860;2024-03-17T04:20:55;0.60;1.00
2523;DHT22;1272;53.332;9.860;2024-03-17T04:23:21;0.60;1.00
2523;DHT22;1272;53.332;9.860;2024-03-17T04:25:48;0.60;1.00
2523;DHT22;1272;53.332;9.860;2024-03-17T04:28:15;0.70;1.00
2523;DHT22;1272;53.332;9.860;2024-03-17T04:30:41;0.70;1.00
2523;DHT22;1272;53.332;9.860;2024-03-17T04:33:09;0.70;1.00
2523;DHT22;1272;53.332;9.860;2024-03-17T04:35:40;0.70;1.00
2523;DHT22;1272;53.332;9.860;2024-03-17T04:38:09;0.70;1.00
2523;DHT22;1272;53.332;9.860;2024-03-17T04:40:41;0.70;1.00
2523;DHT22;1272;53.332;9.860;2024-03-17T04:43:08;0.80;1.00
2523;DHT22;1272;53.332;9.860;2024-03-17T04:45:34;0.80;1.00
2523;DHT22;1272;53.332;9.860;2024-03-17T04:47:59;0.80;1.00
2523;DHT22;1272;53.332;9.860;2024-03-17T04:50:25;0.80;1.20
2523;DHT22;1272;53.332;9.860;2024-03-17T04:52:52;0.80;99.90
2523;DHT22;1272;53.332;9.860;2024-03-17T04:55:18;0.80;99.90
2523;DHT22;1272;53.332;9.860;2024-03-17T04:57:45;0.80;99.90
2523;DHT22;1272;53.332;9.860;2024-03-17T05:00:11;0.90;99.90
2523;DHT22;1272;53.332;9.860;2024-03-17T05:02:39;0.90;99.90
2523;DHT22;1272;53.332;9.860;2024-03-17T05:05:05;0.90;1.00
2523;DHT22;1272;53.332;9.860;2024-03-17T05:07:33;0.90;1.00
2523;DHT22;1272;53.332;9.860;2024-03-17T05:09:59;0.90;1.00
2523;DHT22;1272;53.332;9.860;2024-03-17T05:12:25;1.00;1.00
2523;DHT22;1272;53.332;9.860;2024-03-17T05:14:50;1.00;51.00
2523;DHT22;1272;53.332;9.860;2024-03-17T05:17:16;1.00;99.90
2523;DHT22;1272;53.332;9.860;2024-03-17T05:19:42;1.00;99.90
2523;DHT22;1272;53.332;9.860;2024-03-17T05:22:07;1.10;99.90
2523;DHT22;1272;53.332;9.860;2024-03-17T05:24:33;1.10;99.90
2523;DHT22;1272;53.332;9.860;2024-03-17T05:26:59;1.10;1.00
2523;DHT22;1272;53.332;9.860;2024-03-17T05:29:24;1.10;1.00
2523;DHT22;1272;53.332;9.860;2024-03-17T05:31:50;1.20;1.00
2523;DHT22;1272;53.332;9.860;2024-03-17T05:34:16;1.20;1.00
2523;DHT22;1272;53.332;9.860;2024-03-17T05:36:41;1.20;1.00
2523;DHT22;1272;53.332;9.860;2024-03-17T05:39:07;1.20;84.30
2523;DHT22;1272;53.332;9.860;2024-03-17T05:41:33;1.20;99.90
2523;DHT22;1272;53.332;9.860;2024-03-17T05:43:58;1.20;99.90
2523;DHT22;1272;53.332;9.860;2024-03-17T05:46:25;1.20;99.90
2523;DHT22;1272;53.332;9.860;2024-03-17T05:48:52;1.30;99.90
2523;DHT22;1272;53.332;9.860;2024-03-17T05:51:18;1.20;99.90
2523;DHT22;1272;53.332;9.860;2024-03-17T05:53:43;1.20;1.00
2523;DHT22;1272;53.332;9.860;2024-03-17T05:56:12;1.30;1.00
2523;DHT22;1272;53.332;9.860;2024-03-17T05:58:38;1.30;1.00
2523;DHT22;1272;53.332;9.860;2024-03-17T06:01:05;1.30;17.50
2523;DHT22;1272;53.332;9.860;2024-03-17T06:03:35;1.40;94.30
2523;DHT22;1272;53.332;9.860;2024-03-17T06:06:02;1.40;98.60
2523;DHT22;1272;53.332;9.860;2024-03-17T06:08:29;1.40;99.90
2523;DHT22;1272;53.332;9.860;2024-03-17T06:10:55;1.50;28.00
2523;DHT22;1272;53.332;9.860;2024-03-17T06:13:23;1.50;17.20
2523;DHT22;1272;53.332;9.860;2024-03-17T06:15:50;1.60;99.90
2523;DHT22;1272;53.332;9.860;2024-03-17T06:18:15;1.50;99.90
2523;DHT22;1272;53.332;9.860;2024-03-17T06:20:47;1.50;99.90
2523;DHT22;1272;53.332;9.860;2024-03-17T06:23:14;1.50;99.90
2523;DHT22;1272;53.332;9.860;2024-03-17T06:25:47;1.60;99.90
2523;DHT22;1272;53.332;9.860;2024-03-17T06:28:15;1.60;99.90
2523;DHT22;1272;53.332;9.860;2024-03-17T06:30:45;1.60;99.90
2523;DHT22;1272;53.332;9.860;2024-03-17T06:33:15;1.60;99.90
2523;DHT22;1272;53.332;9.860;2024-03-17T06:35:42;1.60;99.90
2523;DHT22;1272;53.332;9.860;2024-03-17T06:38:07;1.60;99.90
2523;DHT22;1272;53.332;9.860;2024-03-17T06:40:39;1.60;1.00
2523;DHT22;1272;53.332;9.860;2024-03-17T06:43:05;1.60;99.90
2523;DHT22;1272;53.332;9.860;2024-03-17T06:45:32;1.70;99.90
2523;DHT22;1272;53.332;9.860;2024-03-17T06:47:58;1.70;1.00
2523;DHT22;1272;53.332;9.860;2024-03-17T06:50:23;1.70;99.90
2523;DHT22;1272;53.332;9.860;2024-03-17T06:52:49;1.70;1.00
2523;DHT22;1272;53.332;9.860;2024-03-17T06:55:15;1.80;1.00
2523;DHT22;1272;53.332;9.860;2024-03-17T06:57:44;1.80;1.00
2523;DHT22;1272;53.332;9.860;2024-03-17T07:00:11;1.90;1.00
2523;DHT22;1272;53.332;9.860;2024-03-17T07:02:40;1.90;1.00
2523;DHT22;1272;53.332;9.860;2024-03-17T07:05:07;2.00;7.70
2523;DHT22;1272;53.332;9.860;2024-03-17T07:07:33;2.00;82.00
2523;DHT22;1272;53.332;9.860;2024-03-17T07:09:58;2.10;88.20
2523;DHT22;1272;53.332;9.860;2024-03-17T07:12:24;2.10;72.70
2523;DHT22;1272;53.332;9.860;2024-03-17T07:14:50;2.20;93.50
2523;DHT22;1272;53.332;9.860;2024-03-17T07:17:17;2.20;99.90
2523;DHT22;1272;53.332;9.860;2024-03-17T07:19:43;2.30;99.90
2523;DHT22;1272;53.332;9.860;2024-03-17T07:22:08;2.40;99.90
2523;DHT22;1272;53.332;9.860;2024-03-17T07:24:34;2.50;99.90
2523;DHT22;1272;53.332;9.860;2024-03-17T07:27:00;2.50;99.90
2523;DHT22;1272;53.332;9.860;2024-03-17T07:29:25;2.60;99.90
2523;DHT22;1272;53.332;9.860;2024-03-17T07:31:51;2.70;1.00
2523;DHT22;1272;53.332;9.860;2024-03-17T07:34:17;2.70;1.00
2523;DHT22;1272;53.332;9.860;2024-03-17T07:36:42;2.80;1.00
2523;DHT22;1272;53.332;9.860;2024-03-17T07:39:09;2.90;1.00
2523;DHT22;1272;53.332;9.860;2024-03-17T07:41:34;2.90;1.00
2523;DHT22;1272;53.332;9.860;2024-03-17T07:44:00;3.00;1.00
2523;DHT22;1272;53.332;9.860;2024-03-17T07:46:26;3.10;1.00
2523;DHT22;1272;53.332;9.860;2024-03-17T07:48:51;3.20;1.00
2523;DHT22;1272;53.332;9.860;2024-03-17T07:51:17;3.20;1.00
2523;DHT22;1272;53.332;9.860;2024-03-17T07:53:45;3.30;1.00
2523;DHT22;1272;53.332;9.860;2024-03-17T07:56:14;3.30;11.10
2523;DHT22;1272;53.332;9.860;2024-03-17T07:58:41;3.40;61.50
2523;DHT22;1272;53.332;9.860;2024-03-17T08:01:14;3.50;99.90
2523;DHT22;1272;53.332;9.860;2024-03-17T08:03:43;3.50;99.90
2523;DHT22;1272;53.332;9.860;2024-03-17T08:06:10;3.60;99.90
2523;DHT22;1272;53.332;9.860;2024-03-17T08:08:39;3.70;99.90
2523;DHT22;1272;53.332;9.860;2024-03-17T08:11:05;3.70;99.90
2523;DHT22;1272;53.332;9.860;2024-03-17T08:13:31;3.70;99.90
2523;DHT22;1272;53.332;9.860;2024-03-17T08:16:04;3.70;99.90
2523;DHT22;1272;53.332;9.860;2024-03-17T08:18:36;3.80;99.90
2523;DHT22;1272;53.332;9.860;2024-03-17T08:21:02;3.80;99.90
2523;DHT22;1272;53.332;9.860;2024-03-17T08:23:32;3.90;99.90
2523;DHT22;1272;53.332;9.860;2024-03-17T08:26:00;3.90;99.90
2523;DHT22;1272;53.332;9.860;2024-03-17T08:28:27;4.00;99.90
2523;DHT22;1272;53.332;9.860;2024-03-17T08:30:57;4.00;99.90
2523;DHT22;1272;53.332;9.860;2024-03-17T08:33:24;4.10;99.90
2523;DHT22;1272;53.332;9.860;2024-03-17T08:38:27;4.10;99.90
2523;DHT22;1272;53.332;9.860;2024-03-17T08:40:57;4.20;99.90
2523;DHT22;1272;53.332;9.860;2024-03-17T08:43:23;4.20;99.90
2523;DHT22;1272;53.332;9.860;2024-03-17T08:46:00;4.20;99.90
2523;DHT22;1272;53.332;9.860;2024-03-17T08:48:28;4.30;99.90
2523;DHT22;1272;53.332;9.860;2024-03-17T08:50:55;4.30;99.90
2523;DHT22;1272;53.332;9.860;2024-03-17T08:53:21;4.40;99.90
2523;DHT22;1272;53.332;9.860;2024-03-17T08:55:47;4.50;99.90
2523;DHT22;1272;53.332;9.860;2024-03-17T08:58:13;4.60;99.90
2523;DHT22;1272;53.332;9.860;2024-03-17T09:00:39;4.60;99.90
2523;DHT22;1272;53.332;9.860;2024-03-17T09:03:06;4.70;99.90
2523;DHT22;1272;53.332;9.860;2024-03-17T09:05:39;4.90;99.90
2523;DHT22;1272;53.332;9.860;2024-03-17T09:08:09;4.90;1.00
2523;DHT22;1272;53.332;9.860;2024-03-17T09:10:42;5.00;1.00
2523;DHT22;1272;53.332;9.860;2024-03-17T09:13:19;5.10;99.90
2523;DHT22;1272;53.332;9.860;2024-03-17T09:15:59;5.20;77.10
2523;DHT22;1272;53.332;9.860;2024-03-17T09:18:26;5.30;35.40
2523;DHT22;1272;53.332;9.860;2024-03-17T09:21:05;5.40;99.90
2523;DHT22;1272;53.332;9.860;2024-03-17T09:23:33;5.50;1.00
2523;DHT22;1272;53.332;9.860;2024-03-17T09:26:08;5.60;99.90
2523;DHT22;1272;53.332;9.860;2024-03-17T09:28:34;5.80;99.90
2523;DHT22;1272;53.332;9.860;2024-03-17T09:31:00;5.90;99.90
2523;DHT22;1272;53.332;9.860;2024-03-17T09:33:28;5.90;1.00
2523;DHT22;1272;53.332;9.860;2024-03-17T09:36:02;6.00;1.00
2523;DHT22;1272;53.332;9.860;2024-03-17T09:38:28;6.10;1.00
2523;DHT22;1272;53.332;9.860;2024-03-17T09:40:54;6.30;99.90
2523;DHT22;1272;53.332;9.860;2024-03-17T09:43:23;6.40;99.90
2523;DHT22;1272;53.332;9.860;2024-03-17T09:45:51;6.50;99.90
2523;DHT22;1272;53.332;9.860;2024-03-17T09:48:20;6.60;99.90
2523;DHT22;1272;53.332;9.860;2024-03-17T09:51:19;6.80;93.00
2523;DHT22;1272;53.332;9.860;2024-03-17T09:53:46;7.10;39.10
2523;DHT22;1272;53.332;9.860;2024-03-17T09:56:13;7.20;1.00
2523;DHT22;1272;53.332;9.860;2024-03-17T09:58:40;7.30;1.00
2523;DHT22;1272;53.332;9.860;2024-03-17T10:01:06;7.40;1.00
2523;DHT22;1272;53.332;9.860;2024-03-17T10:03:49;7.50;1.00
2523;DHT22;1272;53.332;9.860;2024-03-17T10:06:18;7.60;1.00
2523;DHT22;1272;53.332;9.860;2024-03-17T10:08:49;7.60;99.90
2523;DHT22;1272;53.332;9.860;2024-03-17T10:11:17;7.50;99.90
2523;DHT22;1272;53.332;9.860;2024-03-17T10:13:43;7.40;99.90
2523;DHT22;1272;53.332;9.860;2024-03-17T10:16:23;7.50;99.90
2523;DHT22;1272;53.332;9.860;2024-03-17T10:19:11;7.70;99.90
2523;DHT22;1272;53.332;9.860;2024-03-17T10:21:45;7.90;99.90
2523;DHT22;1272;53.332;9.860;2024-03-17T10:24:23;8.10;99.90
2523;DHT22;1272;53.332;9.860;2024-03-17T10:26:50;8.30;99.90
2523;DHT22;1272;53.332;9.860;2024-03-17T10:29:29;8.50;99.90
2523;DHT22;1272;53.332;9.860;2024-03-17T10:32:16;8.60;99.90
2523;DHT22;1272;53.332;9.860;2024-03-17T10:34:42;8.70;99.90
2523;DHT22;1272;53.332;9.860;2024-03-17T10:39:39;8.80;99.90
2523;DHT22;1272;53.332;9.860;2024-03-17T10:42:07;8.80;99.90
2523;DHT22;1272;53.332;9.860;2024-03-17T10:44:35;8.60;99.90
2523;DHT22;1272;53.332;9.860;2024-03-17T10:47:02;8.60;99.90
2523;DHT22;1272;53.332;9.860;2024-03-17T10:49:31;8.60;99.90
2523;DHT22;1272;53.332;9.860;2024-03-17T10:51:59;8.80;98.20
2523;DHT22;1272;53.332;9.860;2024-03-17T10:54:34;8.90;99.90
2523;DHT22;1272;53.332;9.860;2024-03-17T10:59:47;9.10;69.30
2523;DHT22;1272;53.332;9.860;2024-03-17T11:02:27;9.30;73.50
2523;DHT22;1272;53.332;9.860;2024-03-17T11:05:17;9.50;73.30
2523;DHT22;1272;53.332;9.860;2024-03-17T11:07:45;9.60;65.00
2523;DHT22;1272;53.332;9.860;2024-03-17T11:10:33;9.70;66.00
2523;DHT22;1272;53.332;9.860;2024-03-17T11:13:00;9.90;57.60
2523;DHT22;1272;53.332;9.860;2024-03-17T11:18:41;10.10;30.80
2523;DHT22;1272;53.332;9.860;2024-03-17T11:20:43;10.20;28.60
2523;DHT22;1272;53.332;9.860;2024-03-17T11:23:30;10.40;27.10
2523;DHT22;1272;53.332;9.860;2024-03-17T11:25:57;10.60;24.00
2523;DHT22;1272;53.332;9.860;2024-03-17T11:31:32;11.20;14.10
2523;DHT22;1272;53.332;9.860;2024-03-17T11:33:58;11.50;9.20
2523;DHT22;1272;53.332;9.860;2024-03-17T11:36:36;11.70;1.00
2523;DHT22;1272;53.332;9.860;2024-03-17T11:39:03;11.80;1.00
2523;DHT22;1272;53.332;9.860;2024-03-17T11:47:05;12.20;1.00
2523;DHT22;1272;53.332;9.860;2024-03-17T11:49:32;12.40;1.00
2523;DHT22;1272;53.332;9.860;2024-03-17T11:52:35;12.20;1.00
2523;DHT22;1272;53.332;9.860;2024-03-17T11:55:17;12.10;1.00
2523;DHT22;1272;53.332;9.860;2024-03-17T11:57:55;12.00;1.00
2523;DHT22;1272;53.332;9.860;2024-03-17T12:00:28;11.90;1.00
2523;DHT22;1272;53.332;9.860;2024-03-17T12:02:57;12.20;1.00
2523;DHT22;1272;53.332;9.860;2024-03-17T12:05:24;12.10;1.00
2523;DHT22;1272;53.332;9.860;2024-03-17T12:07:51;12.10;1.00
2523;DHT22;1272;53.332;9.860;2024-03-17T12:10:19;12.30;1.00
2523;DHT22;1272;53.332;9.860;2024-03-17T12:12:47;12.40;1.00
2523;DHT22;1272;53.332;9.860;2024-03-17T12:15:19;12.40;1.00
2523;DHT22;1272;53.332;9.860;2024-03-17T12:17:45;12.50;1.00
2523;DHT22;1272;53.332;9.860;2024-03-17T12:20:19;12.60;1.00
2523;DHT22;1272;53.332;9.860;2024-03-17T12:22:45;12.70;1.00
2523;DHT22;1272;53.332;9.860;2024-03-17T12:25:19;12.60;1.00
2523;DHT22;1272;53.332;9.860;2024-03-17T12:27:46;12.60;1.00
2523;DHT22;1272;53.332;9.860;2024-03-17T12:30:14;12.60;1.00
2523;DHT22;1272;53.332;9.860;2024-03-17T12:32:40;12.50;1.00
2523;DHT22;1272;53.332;9.860;2024-03-17T12:35:13;12.60;1.00
2523;DHT22;1272;53.332;9.860;2024-03-17T12:37:40;12.80;1.00
2523;DHT22;1272;53.332;9.860;2024-03-17T12:40:18;12.90;1.00
2523;DHT22;1272;53.332;9.860;2024-03-17T12:42:48;12.90;1.00
2523;DHT22;1272;53.332;9.860;2024-03-17T12:45:19;13.10;1.00
2523;DHT22;1272;53.332;9.860;2024-03-17T12:47:48;13.30;1.00
2523;DHT22;1272;53.332;9.860;2024-03-17T12:50:13;13.30;1.00
2523;DHT22;1272;53.332;9.860;2024-03-17T12:52:40;13.30;1.00
2523;DHT22;1272;53.332;9.860;2024-03-17T12:55:08;13.20;1.00
2523;DHT22;1272;53.332;9.860;2024-03-17T13:00:46;13.60;1.00
2523;DHT22;1272;53.332;9.860;2024-03-17T13:03:25;13.80;1.00
2523;DHT22;1272;53.332;9.860;2024-03-17T13:05:51;13.90;1.00
2523;DHT22;1272;53.332;9.860;2024-03-17T13:08:17;14.00;1.00
2523;DHT22;1272;53.332;9.860;2024-03-17T13:10:43;14.20;1.00
2523;DHT22;1272;53.332;9.860;2024-03-17T13:13:10;14.40;1.00
2523;DHT22;1272;53.332;9.860;2024-03-17T13:15:38;14.50;1.00
2523;DHT22;1272;53.332;9.860;2024-03-17T13:18:05;14.60;1.00
2523;DHT22;1272;53.332;9.860;2024-03-17T13:20:34;14.50;1.00
2523;DHT22;1272;53.332;9.860;2024-03-17T13:23:00;14.50;1.00
2523;DHT22;1272;53.332;9.860;2024-03-17T13:25:28;14.60;1.00
2523;DHT22;1272;53.332;9.860;2024-03-17T13:28:03;14.70;1.00
2523;DHT22;1272;53.332;9.860;2024-03-17T13:30:29;14.90;1.00
2523;DHT22;1272;53.332;9.860;2024-03-17T13:32:56;15.10;1.00
2523;DHT22;1272;53.332;9.860;2024-03-17T13:35:27;15.10;1.00
2523;DHT22;1272;53.332;9.860;2024-03-17T13:37:53;14.90;1.00
2523;DHT22;1272;53.332;9.860;2024-03-17T13:40:22;14.80;1.00
2523;DHT22;1272;53.332;9.860;2024-03-17T13:42:50;14.60;1.00
2523;DHT22;1272;53.332;9.860;2024-03-17T13:45:17;14.50;1.00
2523;DHT22;1272;53.332;9.860;2024-03-17T13:47:51;14.50;1.00
2523;DHT22;1272;53.332;9.860;2024-03-17T13:50:17;14.40;1.00
2523;DHT22;1272;53.332;9.860;2024-03-17T13:52:44;14.20;1.00
2523;DHT22;1272;53.332;9.860;2024-03-17T13:55:15;13.80;1.00
2523;DHT22;1272;53.332;9.860;2024-03-17T13:57:45;13.60;1.00
2523;DHT22;1272;53.332;9.860;2024-03-17T14:00:12;13.70;1.00
2523;DHT22;1272;53.332;9.860;2024-03-17T14:02:45;13.80;1.00
2523;DHT22;1272;53.332;9.860;2024-03-17T14:05:13;13.90;1.00
2523;DHT22;1272;53.332;9.860;2024-03-17T14:07:40;14.00;1.00
2523;DHT22;1272;53.332;9.860;2024-03-17T14:10:06;13.80;1.00
2523;DHT22;1272;53.332;9.860;2024-03-17T14:12:34;13.70;1.00
2523;DHT22;1272;53.332;9.860;2024-03-17T14:14:59;13.70;1.00
2523;DHT22;1272;53.332;9.860;2024-03-17T14:17:25;13.90;1.00
2523;DHT22;1272;53.332;9.860;2024-03-17T14:19:51;14.20;1.00
2523;DHT22;1272;53.332;9.860;2024-03-17T14:22:16;14.50;1.00
2523;DHT22;1272;53.332;9.860;2024-03-17T14:24:43;14.50;1.00
2523;DHT22;1272;53.332;9.860;2024-03-17T14:27:12;14.30;1.00
2523;DHT22;1272;53.332;9.860;2024-03-17T14:29:38;14.20;1.00
2523;DHT22;1272;53.332;9.860;2024-03-17T14:32:03;14.00;1.00
2523;DHT22;1272;53.332;9.860;2024-03-17T14:34:29;13.90;1.00
2523;DHT22;1272;53.332;9.860;2024-03-17T14:37:00;13.90;1.00
2523;DHT22;1272;53.332;9.860;2024-03-17T14:39:26;13.70;1.00
2523;DHT22;1272;53.332;9.860;2024-03-17T14:41:54;13.50;1.00
2523;DHT22;1272;53.332;9.860;2024-03-17T14:44:20;13.40;1.00
2523;DHT22;1272;53.332;9.860;2024-03-17T14:46:47;13.30;1.00
2523;DHT22;1272;53.332;9.860;2024-03-17T14:49:13;13.10;1.00
2523;DHT22;1272;53.332;9.860;2024-03-17T14:51:38;12.80;1.00
2523;DHT22;1272;53.332;9.860;2024-03-17T14:54:04;12.80;1.00
2523;DHT22;1272;53.332;9.860;2024-03-17T14:56:31;12.70;1.00
2523;DHT22;1272;53.332;9.860;2024-03-17T14:58:57;12.60;1.00
2523;DHT22;1272;53.332;9.860;2024-03-17T15:01:22;12.40;1.00
2523;DHT22;1272;53.332;9.860;2024-03-17T15:03:48;12.50;1.00
2523;DHT22;1272;53.332;9.860;2024-03-17T15:06:14;12.40;1.00
2523;DHT22;1272;53.332;9.860;2024-03-17T15:08:41;12.30;1.00
2523;DHT22;1272;53.332;9.860;2024-03-17T15:11:07;12.40;1.00
2523;DHT22;1272;53.332;9.860;2024-03-17T15:13:35;12.60;1.00
2523;DHT22;1272;53.332;9.860;2024-03-17T15:16:01;12.60;1.00
2523;DHT22;1272;53.332;9.860;2024-03-17T15:18:32;12.70;1.00
2523;DHT22;1272;53.332;9.860;2024-03-17T15:21:00;12.80;1.00
2523;DHT22;1272;53.332;9.860;2024-03-17T15:23:29;12.90;1.00
2523;DHT22;1272;53.332;9.860;2024-03-17T15:26:05;12.90;1.00
2523;DHT22;1272;53.332;9.860;2024-03-17T15:28:39;13.00;1.00
2523;DHT22;1272;53.332;9.860;2024-03-17T15:31:09;13.10;1.00
2523;DHT22;1272;53.332;9.860;2024-03-17T15:33:36;13.10;1.00
2523;DHT22;1272;53.332;9.860;2024-03-17T15:36:10;13.00;1.00
2523;DHT22;1272;53.332;9.860;2024-03-17T15:38:37;12.80;1.00
2523;DHT22;1272;53.332;9.860;2024-03-17T15:41:04;12.80;1.00
2523;DHT22;1272;53.332;9.860;2024-03-17T15:43:35;12.90;1.00
2523;DHT22;1272;53.332;9.860;2024-03-17T15:46:01;12.80;1.00
2523;DHT22;1272;53.332;9.860;2024-03-17T15:48:27;12.70;1.00
2523;DHT22;1272;53.332;9.860;2024-03-17T15:50:56;12.70;1.00
2523;DHT22;1272;53.332;9.860;2024-03-17T15:53:22;12.70;1.00
2523;DHT22;1272;53.332;9.860;2024-03-17T15:58:20;12.60;1.00
2523;DHT22;1272;53.332;9.860;2024-03-17T16:00:46;12.50;1.00
2523;DHT22;1272;53.332;9.860;2024-03-17T16:03:12;12.20;1.00
2523;DHT22;1272;53.332;9.860;2024-03-17T16:05:38;12.10;1.00
2523;DHT22;1272;53.332;9.860;2024-03-17T16:08:07;12.00;1.00
2523;DHT22;1272;53.332;9.860;2024-03-17T16:10:35;11.90;1.00
2523;DHT22;1272;53.332;9.860;2024-03-17T16:13:01;11.80;1.00
2523;DHT22;1272;53.332;9.860;2024-03-17T16:15:27;11.70;1.00
2523;DHT22;1272;53.332;9.860;2024-03-17T16:17:54;11.50;1.00
2523;DHT22;1272;53.332;9.860;2024-03-17T16:20:53;11.40;1.00
2523;DHT22;1272;53.332;9.860;2024-03-17T16:23:21;11.30;1.00
2523;DHT22;1272;53.332;9.860;2024-03-17T16:25:50;11.20;1.00
2523;DHT22;1272;53.332;9.860;2024-03-17T16:28:20;11.00;1.00
2523;DHT22;1272;53.332;9.860;2024-03-17T16:30:46;11.00;1.00
2523;DHT22;1272;53.332;9.860;2024-03-17T16:33:12;10.90;1.00
2523;DHT22;1272;53.332;9.860;2024-03-17T16:35:42;10.90;1.00
2523;DHT22;1272;53.332;9.860;2024-03-17T16:38:13;10.70;1.00
2523;DHT22;1272;53.332;9.860;2024-03-17T16:40:39;10.60;1.00
2523;DHT22;1272;53.332;9.860;2024-03-17T16:43:05;10.50;1.00
2523;DHT22;1272;53.332;9.860;2024-03-17T16:45:32;10.40;1.00
2523;DHT22;1272;53.332;9.860;2024-03-17T16:47:59;10.30;1.00
2523;DHT22;1272;53.332;9.860;2024-03-17T16:50:24;10.20;1.00
2523;DHT22;1272;53.332;9.860;2024-03-17T16:52:50;10.20;1.00